Rotselaar, Belgium
Current Conditions -  °F | °C
As of 1:20 AM on Friday 28 Nov 2014 (Local Time) from EBBR Reporting Station
Broken Clouds Broken Clouds  
Wind Chill: 44°   Ceiling: 4200
Heat Index: 48°   Visibility: 6mi
Dew Point: 45°   Wind: 9mph
Humidity: 87%   Direction: 140°SE
Pressure: 29.68"   Gusts: NA
Location:  50.95°N, 4.72°E
Report Text: EBBR 280020Z 14008KT 9999 SCT011 BKN042 09/07 Q1005 NOSIG
Loading
Personal Weather Stations






























Interactive Weather Map New forecast layout! Learn more

10-Day Weather Forecast

Advertisements
Track Severe Weather on mobile